Time;durP1;ratioP1;P1;durP2;ratioP2;P2;SDS_P1;SDS_P2;PMS_P1;PMS_P2;Temp;Humidity;BMP_temperature;BMP_pressure;BME280_temperature;BME280_humidity;BME280_pressure;Samples;Min_cycle;Max_cycle;Signal;HPM_P1;HPM_P2
2022/11/18 00:02:15;;;;;;;17.48;12.73;;;;;;;;;;5100046;28;20030;-75
2022/11/18 00:05:00;;;;;;;20.33;12.82;;;;;;;;;;5101126;28;20015;-76
2022/11/18 00:07:46;;;;;;;18.77;12.98;;;;;;;;;;5115207;28;20081;-75
2022/11/18 00:10:31;;;;;;;20.60;12.63;;;;;;;;;;5115814;28;20026;-76
2022/11/18 00:16:21;;;;;;;18.30;11.85;;;;;;;;;;5124713;28;20051;-81
2022/11/18 00:19:07;;;;;;;18.77;12.48;;;;;;;;;;5128521;28;20030;-75
2022/11/18 00:21:53;;;;;;;18.10;12.18;;;;;;;;;;5115055;28;20030;-75
2022/11/18 00:24:38;;;;;;;16.27;12.18;;;;;;;;;;5115738;28;20023;-75
2022/11/18 00:27:24;;;;;;;16.27;11.75;;;;;;;;;;5115040;28;20034;-74
2022/11/18 00:30:10;;;;;;;15.63;11.48;;;;;;;;;;5114589;28;20018;-76
2022/11/18 00:32:55;;;;;;;14.75;10.82;;;;;;;;;;5100251;28;20020;-74
2022/11/18 00:35:41;;;;;;;16.23;11.13;;;;;;;;;;5114827;28;20404;-76
2022/11/18 00:38:28;;;;;;;15.10;11.05;;;;;;;;;;5100109;28;20043;-76
2022/11/18 00:41:14;;;;;;;16.58;10.38;;;;;;;;;;5114153;28;20024;-75
2022/11/18 00:44:00;;;;;;;15.10;10.60;;;;;;;;;;5115155;28;20019;-76
2022/11/18 00:46:45;;;;;;;15.48;10.80;;;;;;;;;;5101139;28;20019;-75
2022/11/18 00:49:31;;;;;;;17.17;11.07;;;;;;;;;;5114599;28;20043;-76
2022/11/18 00:52:16;;;;;;;15.82;11.05;;;;;;;;;;5114454;28;20030;-76
2022/11/18 00:55:02;;;;;;;16.48;11.25;;;;;;;;;;5099741;28;20059;-76
2022/11/18 00:57:48;;;;;;;15.65;10.93;;;;;;;;;;5115172;28;20055;-77
2022/11/18 01:00:33;;;;;;;16.02;11.57;;;;;;;;;;5100549;28;20340;-76
2022/11/18 01:03:19;;;;;;;14.88;11.05;;;;;;;;;;5100167;28;20039;-75
2022/11/18 01:06:05;;;;;;;16.88;11.60;;;;;;;;;;5103374;28;20420;-75
2022/11/18 01:08:50;;;;;;;18.27;12.00;;;;;;;;;;5118740;28;20452;-76
2022/11/18 01:14:40;;;;;;;16.65;11.25;;;;;;;;;;5119373;28;20039;-75
2022/11/18 01:17:28;;;;;;;15.85;11.23;;;;;;;;;;5103783;28;20450;-75
2022/11/18 01:20:14;;;;;;;16.42;11.15;;;;;;;;;;5118545;28;20023;-75
2022/11/18 01:23:00;;;;;;;16.65;11.02;;;;;;;;;;5103643;28;20031;-76
2022/11/18 01:25:47;;;;;;;16.25;11.50;;;;;;;;;;5119043;28;20007;-76
2022/11/18 01:28:33;;;;;;;16.75;11.43;;;;;;;;;;5103484;28;20016;-76
2022/11/18 01:31:18;;;;;;;15.27;10.90;;;;;;;;;;5118192;28;20469;-75
2022/11/18 01:34:04;;;;;;;17.05;11.30;;;;;;;;;;5118143;28;20027;-75
2022/11/18 01:36:51;;;;;;;17.45;11.25;;;;;;;;;;5118347;28;20055;-75
2022/11/18 01:39:36;;;;;;;17.25;11.45;;;;;;;;;;5102590;28;20156;-75
2022/11/18 01:42:22;;;;;;;16.40;11.63;;;;;;;;;;5118431;28;20065;-77
2022/11/18 01:45:17;;;;;;;18.50;12.05;;;;;;;;;;5103445;28;20016;-76
2022/11/18 01:48:08;;;;;;;17.75;11.68;;;;;;;;;;5117790;28;20115;-76
2022/11/18 01:50:57;;;;;;;15.85;11.63;;;;;;;;;;5117980;28;20091;-76
2022/11/18 01:53:48;;;;;;;15.93;11.10;;;;;;;;;;5118650;28;20019;-75
2022/11/18 01:56:42;;;;;;;14.43;10.90;;;;;;;;;;5103193;28;20024;-76
2022/11/18 01:59:30;;;;;;;15.70;10.82;;;;;;;;;;5118172;28;20064;-75
2022/11/18 02:02:16;;;;;;;15.40;11.00;;;;;;;;;;5117258;28;20084;-75
2022/11/18 02:05:03;;;;;;;16.67;11.00;;;;;;;;;;5103395;28;20360;-75
2022/11/18 02:07:48;;;;;;;15.32;10.77;;;;;;;;;;5103354;28;20501;-74
2022/11/18 02:10:34;;;;;;;15.02;10.35;;;;;;;;;;5117585;28;20356;-75
2022/11/18 02:13:20;;;;;;;15.52;10.93;;;;;;;;;;5117965;28;20432;-76
2022/11/18 02:16:05;;;;;;;15.60;10.85;;;;;;;;;;5103754;28;20027;-75
2022/11/18 02:18:53;;;;;;;16.92;11.80;;;;;;;;;;5116604;28;20332;-74
2022/11/18 02:21:48;;;;;;;16.35;10.80;;;;;;;;;;5116662;28;20020;-75
2022/11/18 02:24:42;;;;;;;18.77;11.60;;;;;;;;;;5117258;28;20015;-76
2022/11/18 02:27:34;;;;;;;16.80;11.23;;;;;;;;;;5103283;28;20023;-76
2022/11/18 02:30:20;;;;;;;19.45;12.75;;;;;;;;;;5103217;28;20016;-75
2022/11/18 02:33:16;;;;;;;16.23;11.70;;;;;;;;;;5101999;28;20470;-74
2022/11/18 02:36:21;;;;;;;17.80;12.38;;;;;;;;;;5100977;28;20072;-76
2022/11/18 02:39:15;;;;;;;19.98;12.95;;;;;;;;;;5101417;28;20023;-76
2022/11/18 02:42:03;;;;;;;19.58;12.95;;;;;;;;;;5117182;28;20106;-75
2022/11/18 02:44:51;;;;;;;19.95;14.30;;;;;;;;;;5116924;28;20336;-75
2022/11/18 02:47:36;;;;;;;24.05;13.90;;;;;;;;;;5115238;28;20020;-76
2022/11/18 02:50:24;;;;;;;20.33;13.88;;;;;;;;;;5116920;28;20023;-76
2022/11/18 02:53:12;;;;;;;22.70;14.55;;;;;;;;;;5100671;28;20028;-75
2022/11/18 02:55:59;;;;;;;20.90;14.13;;;;;;;;;;5117088;28;20510;-75
2022/11/18 02:58:44;;;;;;;19.40;13.25;;;;;;;;;;5101586;28;20024;-76
2022/11/18 03:01:31;;;;;;;21.70;13.90;;;;;;;;;;5116652;28;20102;-76
2022/11/18 03:04:17;;;;;;;20.40;13.38;;;;;;;;;;5116673;28;20080;-75
2022/11/18 03:07:21;;;;;;;21.63;13.25;;;;;;;;;;5116696;28;20043;-76
2022/11/18 03:10:07;;;;;;;20.48;13.40;;;;;;;;;;5116710;28;20397;-76
2022/11/18 03:12:55;;;;;;;21.35;14.25;;;;;;;;;;5116578;28;20024;-75
2022/11/18 03:15:50;;;;;;;22.63;14.25;;;;;;;;;;5101533;28;20031;-74
2022/11/18 03:18:43;;;;;;;23.02;13.80;;;;;;;;;;5116443;28;20057;-75
2022/11/18 03:21:32;;;;;;;22.52;14.63;;;;;;;;;;5116634;28;20129;-75
2022/11/18 03:24:44;;;;;;;21.85;13.98;;;;;;;;;;5116629;28;20078;-76
2022/11/18 03:27:35;;;;;;;23.67;14.02;;;;;;;;;;5116125;28;20031;-76
2022/11/18 03:30:22;;;;;;;23.58;14.90;;;;;;;;;;5100291;28;20016;-75
2022/11/18 03:33:10;;;;;;;20.70;14.27;;;;;;;;;;5101722;28;20412;-75
2022/11/18 03:35:56;;;;;;;24.77;14.75;;;;;;;;;;5102048;28;20035;-75
2022/11/18 03:38:44;;;;;;;22.02;14.02;;;;;;;;;;5101557;28;20138;-75
2022/11/18 03:41:31;;;;;;;21.60;15.02;;;;;;;;;;5116421;28;20019;-76
2022/11/18 03:44:20;;;;;;;21.73;15.02;;;;;;;;;;5101879;28;20019;-75
2022/11/18 03:47:08;;;;;;;27.80;15.88;;;;;;;;;;5100561;28;20027;-75
2022/11/18 03:50:02;;;;;;;19.52;14.02;;;;;;;;;;5116359;28;20027;-75
2022/11/18 03:52:49;;;;;;;25.85;15.93;;;;;;;;;;5100809;28;20016;-75
2022/11/18 03:55:39;;;;;;;25.13;15.23;;;;;;;;;;5116051;28;20033;-77
2022/11/18 03:58:34;;;;;;;23.73;15.45;;;;;;;;;;5099813;28;20038;-75
2022/11/18 04:01:45;;;;;;;22.20;15.65;;;;;;;;;;5116291;28;20047;-76
2022/11/18 04:04:31;;;;;;;25.55;15.65;;;;;;;;;;5080939;28;20028;-74
2022/11/18 04:07:28;;;;;;;24.45;15.75;;;;;;;;;;5115573;28;20034;-76
2022/11/18 04:10:19;;;;;;;25.73;16.13;;;;;;;;;;5099166;28;20038;-75
2022/11/18 04:13:10;;;;;;;26.60;15.88;;;;;;;;;;5093315;28;20061;-75
2022/11/18 04:15:56;;;;;;;28.17;16.02;;;;;;;;;;5115691;28;20015;-75
2022/11/18 04:18:41;;;;;;;29.40;16.05;;;;;;;;;;5100747;28;20024;-75
2022/11/18 04:21:27;;;;;;;33.58;18.05;;;;;;;;;;5115578;28;20207;-76
2022/11/18 04:24:13;;;;;;;33.55;19.45;;;;;;;;;;5114559;28;20049;-76
2022/11/18 04:26:58;;;;;;;31.38;20.67;;;;;;;;;;5115118;28;20019;-75
2022/11/18 04:29:44;;;;;;;35.60;21.58;;;;;;;;;;5115132;28;20027;-76
2022/11/18 04:32:29;;;;;;;37.45;21.17;;;;;;;;;;5114128;28;20012;-75
2022/11/18 04:35:15;;;;;;;36.10;21.65;;;;;;;;;;5115404;28;20095;-76
2022/11/18 04:38:01;;;;;;;41.50;24.92;;;;;;;;;;5114340;28;20044;-75
2022/11/18 04:40:46;;;;;;;35.42;22.42;;;;;;;;;;5100795;28;20425;-76
2022/11/18 04:43:32;;;;;;;51.95;28.60;;;;;;;;;;5114681;28;20119;-75
2022/11/18 04:46:17;;;;;;;55.17;30.65;;;;;;;;;;5099884;28;20024;-75
2022/11/18 04:49:03;;;;;;;62.00;34.78;;;;;;;;;;5099529;28;20031;-75
2022/11/18 04:51:49;;;;;;;52.08;31.98;;;;;;;;;;5115720;28;20019;-75
2022/11/18 04:54:35;;;;;;;49.35;29.40;;;;;;;;;;5115796;28;20020;-76
2022/11/18 04:57:20;;;;;;;68.85;39.05;;;;;;;;;;5114880;28;20016;-76
2022/11/18 05:00:06;;;;;;;55.65;30.23;;;;;;;;;;5114585;28;20027;-75
2022/11/18 05:02:52;;;;;;;54.60;32.15;;;;;;;;;;5114577;28;20103;-75
2022/11/18 05:05:37;;;;;;;46.90;28.90;;;;;;;;;;5100592;28;20484;-75
2022/11/18 05:08:23;;;;;;;45.35;27.48;;;;;;;;;;5099484;28;20016;-75
2022/11/18 05:14:14;;;;;;;42.38;24.13;;;;;;;;;;5115737;28;20019;-75
2022/11/18 05:17:00;;;;;;;42.03;23.73;;;;;;;;;;5099945;28;20020;-77
2022/11/18 05:19:46;;;;;;;37.03;21.98;;;;;;;;;;5114832;28;20524;-76
2022/11/18 05:22:31;;;;;;;48.13;23.10;;;;;;;;;;5114949;28;20057;-77
2022/11/18 05:25:17;;;;;;;38.75;21.88;;;;;;;;;;5114902;28;20068;-79
2022/11/18 05:28:03;;;;;;;45.92;23.20;;;;;;;;;;5100698;28;20043;-73
2022/11/18 05:30:50;;;;;;;35.67;21.15;;;;;;;;;;5113776;28;20024;-74
2022/11/18 05:33:36;;;;;;;37.03;21.00;;;;;;;;;;5099589;28;20052;-74
2022/11/18 05:36:22;;;;;;;42.50;22.13;;;;;;;;;;5113242;28;20062;-74
2022/11/18 05:39:08;;;;;;;43.42;21.77;;;;;;;;;;5114734;28;20413;-75
2022/11/18 05:44:57;;;;;;;54.03;26.25;;;;;;;;;;5114710;28;20032;-75
2022/11/18 05:48:03;;;;;;;48.83;28.17;;;;;;;;;;5114528;28;20472;-74
2022/11/18 05:50:49;;;;;;;50.50;27.30;;;;;;;;;;5114342;28;20447;-76
2022/11/18 05:53:35;;;;;;;45.70;27.42;;;;;;;;;;5118054;28;20050;-75
2022/11/18 05:56:22;;;;;;;54.03;28.33;;;;;;;;;;5118555;28;20030;-74
2022/11/18 05:59:08;;;;;;;52.40;27.35;;;;;;;;;;5116274;28;20046;-76
2022/11/18 06:01:56;;;;;;;41.75;24.13;;;;;;;;;;5117699;28;20034;-74
2022/11/18 06:04:47;;;;;;;49.58;24.70;;;;;;;;;;5117512;28;20033;-75
2022/11/18 06:07:52;;;;;;;45.17;26.00;;;;;;;;;;5116351;28;20051;-75
2022/11/18 06:10:40;;;;;;;45.40;26.75;;;;;;;;;;5117610;28;20401;-75
2022/11/18 06:13:32;;;;;;;50.83;27.20;;;;;;;;;;5102201;28;20035;-76
2022/11/18 06:16:19;;;;;;;44.60;27.63;;;;;;;;;;5117318;28;20027;-75
2022/11/18 06:19:05;;;;;;;44.58;26.02;;;;;;;;;;5116997;28;20019;-75
2022/11/18 06:21:51;;;;;;;37.38;21.27;;;;;;;;;;5103774;28;20333;-74
2022/11/18 06:24:37;;;;;;;35.20;21.48;;;;;;;;;;5103628;28;20027;-74
2022/11/18 06:27:23;;;;;;;33.65;20.27;;;;;;;;;;5104248;28;20031;-73
2022/11/18 06:30:09;;;;;;;33.20;20.55;;;;;;;;;;5102701;28;20383;-75
2022/11/18 06:32:54;;;;;;;34.30;20.70;;;;;;;;;;5103177;28;20023;-73
2022/11/18 06:35:43;;;;;;;31.98;20.77;;;;;;;;;;5117410;28;20444;-74
2022/11/18 06:38:28;;;;;;;41.45;22.98;;;;;;;;;;5102486;28;20043;-74
2022/11/18 06:41:14;;;;;;;45.58;24.83;;;;;;;;;;5117431;28;20023;-74
2022/11/18 06:44:00;;;;;;;46.15;24.10;;;;;;;;;;5102064;28;20012;-74
2022/11/18 06:46:54;;;;;;;36.40;23.17;;;;;;;;;;5116868;28;20129;-76
2022/11/18 06:49:40;;;;;;;36.83;22.27;;;;;;;;;;5116734;28;20015;-75
2022/11/18 06:52:26;;;;;;;35.67;21.55;;;;;;;;;;5102383;28;20293;-73
2022/11/18 06:55:12;;;;;;;34.08;21.13;;;;;;;;;;5115742;28;20066;-74
2022/11/18 06:57:57;;;;;;;40.50;22.20;;;;;;;;;;5116549;28;20053;-74
2022/11/18 07:00:43;;;;;;;41.28;22.25;;;;;;;;;;5116843;28;20473;-76
2022/11/18 07:03:28;;;;;;;40.80;21.85;;;;;;;;;;5106732;28;20032;-73
2022/11/18 07:06:15;;;;;;;38.22;20.70;;;;;;;;;;5105872;28;20043;-74
2022/11/18 07:09:03;;;;;;;38.72;21.85;;;;;;;;;;5092781;28;20058;-73
2022/11/18 07:11:48;;;;;;;34.42;20.30;;;;;;;;;;5105929;28;20954;-75
2022/11/18 07:14:34;;;;;;;38.58;21.73;;;;;;;;;;5097860;28;20035;-74
2022/11/18 07:17:19;;;;;;;39.60;20.67;;;;;;;;;;5088690;28;21131;-75
2022/11/18 07:20:05;;;;;;;40.55;20.95;;;;;;;;;;5104046;28;20029;-74
2022/11/18 07:22:52;;;;;;;35.30;20.20;;;;;;;;;;5104875;28;20085;-73
2022/11/18 07:25:38;;;;;;;39.30;21.88;;;;;;;;;;5103696;28;20046;-72
2022/11/18 07:28:23;;;;;;;42.15;22.50;;;;;;;;;;5089661;28;20091;-72
2022/11/18 07:31:10;;;;;;;35.63;22.17;;;;;;;;;;5105607;28;20040;-73
2022/11/18 07:33:56;;;;;;;35.03;20.30;;;;;;;;;;5104998;28;20027;-73
2022/11/18 07:36:42;;;;;;;31.10;20.60;;;;;;;;;;5102475;28;20126;-74
2022/11/18 07:39:27;;;;;;;30.80;19.23;;;;;;;;;;5104228;28;20036;-73
2022/11/18 07:42:13;;;;;;;30.35;19.17;;;;;;;;;;5105637;28;20031;-73
2022/11/18 07:44:58;;;;;;;26.40;17.75;;;;;;;;;;5105834;28;20020;-73
2022/11/18 07:47:44;;;;;;;28.23;18.17;;;;;;;;;;5103271;28;20047;-72
2022/11/18 07:50:29;;;;;;;31.52;18.23;;;;;;;;;;5104736;28;20328;-73
2022/11/18 07:53:15;;;;;;;31.65;18.63;;;;;;;;;;5090020;28;20468;-73
2022/11/18 07:56:01;;;;;;;29.27;17.83;;;;;;;;;;5103217;28;20055;-74
2022/11/18 07:58:47;;;;;;;28.45;18.10;;;;;;;;;;5104255;28;20497;-73
2022/11/18 08:01:32;;;;;;;32.90;18.33;;;;;;;;;;5102558;28;20156;-73
2022/11/18 08:04:18;;;;;;;31.02;18.65;;;;;;;;;;5102459;28;20123;-72
2022/11/18 08:07:04;;;;;;;30.35;18.20;;;;;;;;;;5101259;28;20022;-73
2022/11/18 08:09:49;;;;;;;36.97;17.55;;;;;;;;;;5104088;28;20072;-73
2022/11/18 08:12:35;;;;;;;28.80;17.45;;;;;;;;;;5102186;28;20030;-74
2022/11/18 08:15:20;;;;;;;28.27;17.05;;;;;;;;;;5088705;28;20146;-73
2022/11/18 08:18:06;;;;;;;27.65;16.63;;;;;;;;;;5086807;28;20069;-73
2022/11/18 08:20:51;;;;;;;28.90;18.70;;;;;;;;;;5090789;28;20108;-72
2022/11/18 08:23:37;;;;;;;31.05;17.67;;;;;;;;;;5103766;28;20039;-73
2022/11/18 08:26:23;;;;;;;24.45;16.10;;;;;;;;;;5102298;28;20142;-73
2022/11/18 08:29:09;;;;;;;25.48;16.30;;;;;;;;;;5097740;28;20402;-73
2022/11/18 08:31:55;;;;;;;25.52;16.52;;;;;;;;;;5097451;28;20062;-73
2022/11/18 08:34:40;;;;;;;25.48;15.45;;;;;;;;;;5103107;28;20085;-73
2022/11/18 08:37:26;;;;;;;29.63;15.82;;;;;;;;;;5102890;28;20055;-72
2022/11/18 08:40:11;;;;;;;23.38;15.00;;;;;;;;;;5105368;28;20045;-73
2022/11/18 08:42:57;;;;;;;20.98;15.32;;;;;;;;;;5107215;28;20023;-72
2022/11/18 08:45:42;;;;;;;22.42;15.65;;;;;;;;;;5102276;28;20020;-73
2022/11/18 08:48:28;;;;;;;26.10;15.23;;;;;;;;;;5090523;28;20015;-73
2022/11/18 08:51:14;;;;;;;21.02;14.48;;;;;;;;;;5103937;28;20460;-73
2022/11/18 08:54:00;;;;;;;20.38;13.68;;;;;;;;;;5104270;28;20370;-72
2022/11/18 08:56:46;;;;;;;26.08;14.48;;;;;;;;;;5102242;28;20024;-72
2022/11/18 08:59:31;;;;;;;21.15;13.88;;;;;;;;;;5105120;28;20023;-73
2022/11/18 09:02:18;;;;;;;21.95;15.20;;;;;;;;;;5104372;28;20439;-74
2022/11/18 09:05:04;;;;;;;30.25;17.05;;;;;;;;;;5104584;28;20024;-73
2022/11/18 09:07:50;;;;;;;24.83;16.95;;;;;;;;;;5103016;28;20362;-72
2022/11/18 09:10:36;;;;;;;28.42;17.63;;;;;;;;;;5105251;28;20015;-73
2022/11/18 09:13:21;;;;;;;29.75;17.20;;;;;;;;;;5107685;28;20055;-73
2022/11/18 09:16:07;;;;;;;25.13;15.73;;;;;;;;;;5102018;28;20032;-72
2022/11/18 09:18:54;;;;;;;27.27;15.43;;;;;;;;;;5111350;28;20103;-71
2022/11/18 09:21:40;;;;;;;27.17;16.55;;;;;;;;;;5109651;28;20080;-72
2022/11/18 09:24:25;;;;;;;24.15;15.18;;;;;;;;;;5107656;28;20034;-73
2022/11/18 09:27:11;;;;;;;29.98;15.82;;;;;;;;;;5105233;28;20027;-74
2022/11/18 09:29:56;;;;;;;26.95;15.10;;;;;;;;;;5114702;28;20028;-73
2022/11/18 09:32:42;;;;;;;25.02;14.98;;;;;;;;;;5115506;28;20028;-73
2022/11/18 09:35:28;;;;;;;22.75;14.70;;;;;;;;;;5116088;28;20034;-72
2022/11/18 09:38:13;;;;;;;22.83;14.85;;;;;;;;;;5113187;28;20050;-73
2022/11/18 09:40:59;;;;;;;23.90;14.55;;;;;;;;;;5117505;28;20352;-72
2022/11/18 09:44:03;;;;;;;26.23;15.88;;;;;;;;;;5114463;28;20035;-73
2022/11/18 09:46:58;;;;;;;23.83;15.10;;;;;;;;;;5102839;28;20027;-74
2022/11/18 09:49:44;;;;;;;34.30;16.30;;;;;;;;;;5111297;28;20464;-74
2022/11/18 09:52:32;;;;;;;25.10;15.00;;;;;;;;;;5106922;28;20023;-73
2022/11/18 09:55:18;;;;;;;32.92;18.98;;;;;;;;;;5108209;28;20055;-73
2022/11/18 09:58:04;;;;;;;22.10;15.07;;;;;;;;;;5105876;28;20409;-74
2022/11/18 10:00:50;;;;;;;30.15;15.52;;;;;;;;;;5103193;28;20483;-73
2022/11/18 10:03:37;;;;;;;28.02;14.82;;;;;;;;;;5108052;28;20023;-72
2022/11/18 10:06:25;;;;;;;26.13;15.32;;;;;;;;;;5106019;28;20031;-75
2022/11/18 10:09:32;;;;;;;27.25;16.85;;;;;;;;;;5108401;28;20068;-72
2022/11/18 10:12:36;;;;;;;29.35;17.42;;;;;;;;;;5117803;28;20046;-73
2022/11/18 10:15:32;;;;;;;23.20;14.73;;;;;;;;;;5123983;28;20115;-73
2022/11/18 10:18:29;;;;;;;22.20;15.75;;;;;;;;;;5120484;28;20031;-72
2022/11/18 10:21:33;;;;;;;22.77;15.93;;;;;;;;;;5125093;27;20038;-73
2022/11/18 10:24:20;;;;;;;27.88;16.45;;;;;;;;;;5104179;28;20019;-73
2022/11/18 10:27:09;;;;;;;28.63;17.00;;;;;;;;;;5118589;28;20008;-73
2022/11/18 10:29:56;;;;;;;23.83;14.45;;;;;;;;;;5123786;28;20026;-74
2022/11/18 10:32:54;;;;;;;23.52;14.25;;;;;;;;;;5119637;28;20077;-74
2022/11/18 10:35:39;;;;;;;20.48;13.70;;;;;;;;;;5102630;28;20035;-74
2022/11/18 10:38:25;;;;;;;23.42;15.02;;;;;;;;;;5109460;28;20205;-75
2022/11/18 10:41:12;;;;;;;24.77;14.30;;;;;;;;;;5110355;28;20027;-73
2022/11/18 10:43:58;;;;;;;19.23;13.82;;;;;;;;;;5109344;28;20033;-73
2022/11/18 10:46:43;;;;;;;17.88;12.07;;;;;;;;;;5105880;28;20028;-75
2022/11/18 10:49:36;;;;;;;20.45;13.13;;;;;;;;;;5106024;28;20051;-74
2022/11/18 10:52:22;;;;;;;22.95;12.25;;;;;;;;;;5109909;28;21193;-74
2022/11/18 10:55:11;;;;;;;17.30;11.63;;;;;;;;;;5105447;28;20051;-73
2022/11/18 10:58:08;;;;;;;24.00;12.93;;;;;;;;;;5105645;28;20063;-74
2022/11/18 11:01:03;;;;;;;19.92;12.55;;;;;;;;;;5093071;28;20499;-74
2022/11/18 11:04:03;;;;;;;23.45;13.07;;;;;;;;;;5093170;28;20040;-75
2022/11/18 11:06:49;;;;;;;18.08;12.05;;;;;;;;;;5106685;28;20032;-74
2022/11/18 11:09:35;;;;;;;18.42;11.75;;;;;;;;;;5092928;28;20019;-72
2022/11/18 11:12:21;;;;;;;25.90;14.23;;;;;;;;;;5092857;28;20034;-74
2022/11/18 11:15:12;;;;;;;16.98;11.85;;;;;;;;;;5094734;28;20048;-74
2022/11/18 11:21:18;;;;;;;21.13;12.63;;;;;;;;;;5107169;28;20032;-73
2022/11/18 11:24:11;;;;;;;21.58;12.30;;;;;;;;;;5092843;28;20062;-73
2022/11/18 11:27:00;;;;;;;19.90;12.55;;;;;;;;;;5103247;28;20434;-75
2022/11/18 11:30:00;;;;;;;20.13;12.95;;;;;;;;;;5106330;28;20104;-74
2022/11/18 11:33:01;;;;;;;23.65;13.43;;;;;;;;;;5105558;28;20562;-73
2022/11/18 11:36:08;;;;;;;20.30;13.70;;;;;;;;;;5104790;28;20036;-74
2022/11/18 11:39:12;;;;;;;22.42;13.90;;;;;;;;;;5105263;28;20051;-73
2022/11/18 11:41:58;;;;;;;23.77;13.88;;;;;;;;;;5104646;27;20117;-74
2022/11/18 11:45:10;;;;;;;25.10;14.20;;;;;;;;;;5101701;28;20051;-74
2022/11/18 11:48:20;;;;;;;22.70;12.73;;;;;;;;;;5083300;28;20055;-73
2022/11/18 11:51:14;;;;;;;21.35;11.43;;;;;;;;;;5105144;28;20020;-74
2022/11/18 11:53:59;;;;;;;19.90;11.65;;;;;;;;;;5107108;27;20031;-73
2022/11/18 11:56:57;;;;;;;20.25;10.75;;;;;;;;;;5103118;27;20031;-75
2022/11/18 12:00:01;;;;;;;17.45;10.45;;;;;;;;;;5107375;28;20027;-75
2022/11/18 12:02:47;;;;;;;17.73;10.52;;;;;;;;;;5098846;27;20031;-73
2022/11/18 12:05:35;;;;;;;19.23;10.13;;;;;;;;;;5104240;28;20031;-74
2022/11/18 12:08:24;;;;;;;20.52;10.98;;;;;;;;;;5104512;28;20027;-75
2022/11/18 12:11:16;;;;;;;17.88;10.43;;;;;;;;;;5091988;28;20077;-74
2022/11/18 12:14:05;;;;;;;21.45;10.48;;;;;;;;;;5103781;28;20024;-74
2022/11/18 12:16:54;;;;;;;19.30;10.48;;;;;;;;;;5102935;28;20023;-72
2022/11/18 12:19:39;;;;;;;17.33;10.52;;;;;;;;;;5103754;28;20030;-74
2022/11/18 12:22:45;;;;;;;17.10;10.95;;;;;;;;;;5106277;28;20031;-74
2022/11/18 12:26:03;;;;;;;16.38;10.82;;;;;;;;;;5104647;28;20451;-73
2022/11/18 12:28:49;;;;;;;17.50;11.15;;;;;;;;;;5067193;28;20054;-74
2022/11/18 12:31:35;;;;;;;15.80;11.25;;;;;;;;;;5090737;28;20050;-73
2022/11/18 12:34:39;;;;;;;21.08;11.80;;;;;;;;;;5103443;28;20063;-73
2022/11/18 12:37:24;;;;;;;18.50;11.60;;;;;;;;;;5101756;28;20079;-74
2022/11/18 12:40:29;;;;;;;19.13;11.32;;;;;;;;;;5091266;28;20032;-74
2022/11/18 12:46:34;;;;;;;18.77;12.48;;;;;;;;;;5104497;28;20077;-74
2022/11/18 12:49:20;;;;;;;19.30;12.27;;;;;;;;;;5092760;28;20034;-74
2022/11/18 12:52:25;;;;;;;21.92;12.77;;;;;;;;;;5093868;28;20024;-72
2022/11/18 12:55:16;;;;;;;21.98;12.40;;;;;;;;;;5102254;28;20016;-74
2022/11/18 12:58:02;;;;;;;19.00;12.40;;;;;;;;;;5101883;28;20235;-74
2022/11/18 13:00:53;;;;;;;22.90;12.75;;;;;;;;;;5105522;28;20028;-75
2022/11/18 13:03:39;;;;;;;17.48;11.60;;;;;;;;;;5093629;28;20028;-73
2022/11/18 13:06:24;;;;;;;20.65;12.48;;;;;;;;;;5106999;28;20144;-74
2022/11/18 13:09:18;;;;;;;19.77;11.68;;;;;;;;;;5108438;28;20027;-73
2022/11/18 13:12:07;;;;;;;19.73;12.43;;;;;;;;;;5109733;28;20080;-75
2022/11/18 13:18:10;;;;;;;20.98;12.30;;;;;;;;;;5106979;28;20024;-73
2022/11/18 13:20:56;;;;;;;21.92;12.95;;;;;;;;;;5110751;27;20112;-73
2022/11/18 13:23:51;;;;;;;22.92;13.23;;;;;;;;;;5107223;28;20023;-72
2022/11/18 13:26:39;;;;;;;24.25;12.38;;;;;;;;;;5106218;28;20019;-74
2022/11/18 13:29:30;;;;;;;17.67;12.70;;;;;;;;;;5104802;28;20020;-73
2022/11/18 13:32:23;;;;;;;20.88;11.73;;;;;;;;;;5099983;28;20878;-73
2022/11/18 13:35:17;;;;;;;20.05;12.77;;;;;;;;;;5094364;28;20016;-73
2022/11/18 13:38:07;;;;;;;18.90;12.80;;;;;;;;;;5104902;28;20052;-73
2022/11/18 13:41:06;;;;;;;19.50;12.52;;;;;;;;;;5108214;28;20027;-73
2022/11/18 13:43:53;;;;;;;18.83;12.05;;;;;;;;;;5108673;28;20027;-73
2022/11/18 13:46:39;;;;;;;23.48;11.50;;;;;;;;;;5106690;28;20029;-74
2022/11/18 13:49:37;;;;;;;17.13;11.88;;;;;;;;;;5107647;28;20028;-75
2022/11/18 13:52:27;;;;;;;17.35;11.85;;;;;;;;;;5107398;28;20062;-74
2022/11/18 13:55:21;;;;;;;18.90;12.73;;;;;;;;;;5101224;28;20512;-74
2022/11/18 13:58:19;;;;;;;19.75;11.80;;;;;;;;;;5105225;28;20426;-73
2022/11/18 14:01:11;;;;;;;19.70;12.07;;;;;;;;;;5109126;28;20016;-73
2022/11/18 14:03:57;;;;;;;16.77;10.88;;;;;;;;;;5103768;28;20028;-73
2022/11/18 14:06:43;;;;;;;17.48;11.25;;;;;;;;;;5103918;28;20501;-73
2022/11/18 14:09:29;;;;;;;16.35;11.68;;;;;;;;;;5107614;28;20031;-73
2022/11/18 14:12:15;;;;;;;23.38;10.95;;;;;;;;;;5107005;27;20026;-73
2022/11/18 14:15:31;;;;;;;18.83;10.10;;;;;;;;;;5108126;28;20032;-73
2022/11/18 14:18:26;;;;;;;23.17;11.07;;;;;;;;;;5101240;28;20028;-72
2022/11/18 14:21:12;;;;;;;19.05;10.80;;;;;;;;;;5107428;28;20038;-75
2022/11/18 14:23:58;;;;;;;18.85;10.95;;;;;;;;;;5108232;28;20023;-73
2022/11/18 14:26:43;;;;;;;23.05;11.35;;;;;;;;;;5089826;28;20019;-73
2022/11/18 14:29:29;;;;;;;17.42;11.65;;;;;;;;;;5108155;28;20026;-73
2022/11/18 14:32:15;;;;;;;16.95;11.00;;;;;;;;;;5105728;28;20019;-74
2022/11/18 14:35:01;;;;;;;22.33;11.88;;;;;;;;;;5108039;28;20142;-73
2022/11/18 14:37:46;;;;;;;17.75;12.00;;;;;;;;;;5104644;28;20051;-74
2022/11/18 14:40:32;;;;;;;20.13;12.57;;;;;;;;;;5107928;28;20042;-72
2022/11/18 14:43:18;;;;;;;23.15;13.02;;;;;;;;;;5105976;28;20027;-75
2022/11/18 14:46:12;;;;;;;21.08;12.77;;;;;;;;;;5105054;28;20016;-73
2022/11/18 14:49:01;;;;;;;24.20;13.70;;;;;;;;;;5107201;28;20019;-75
2022/11/18 14:51:47;;;;;;;30.48;14.60;;;;;;;;;;5106885;28;20031;-74
2022/11/18 14:54:33;;;;;;;29.75;15.88;;;;;;;;;;5107102;28;20030;-73
2022/11/18 14:57:18;;;;;;;28.52;14.95;;;;;;;;;;5104033;28;20440;-73
2022/11/18 15:00:04;;;;;;;29.45;15.95;;;;;;;;;;5111666;28;20032;-74
2022/11/18 15:02:50;;;;;;;30.27;17.80;;;;;;;;;;5107485;27;20030;-73
2022/11/18 15:05:35;;;;;;;31.80;16.77;;;;;;;;;;5091280;28;20011;-73
2022/11/18 15:08:21;;;;;;;26.83;17.65;;;;;;;;;;5105196;28;20112;-73
2022/11/18 15:11:07;;;;;;;33.08;17.88;;;;;;;;;;5104447;27;20454;-73
2022/11/18 15:13:52;;;;;;;36.53;19.40;;;;;;;;;;5104274;28;20028;-73
2022/11/18 15:16:38;;;;;;;35.83;18.90;;;;;;;;;;5102363;28;20023;-72
2022/11/18 15:19:23;;;;;;;31.27;19.73;;;;;;;;;;5106047;28;20027;-74
2022/11/18 15:22:09;;;;;;;26.35;18.50;;;;;;;;;;5097421;28;20026;-74
2022/11/18 15:24:55;;;;;;;30.83;20.05;;;;;;;;;;5105285;28;20126;-73
2022/11/18 15:27:40;;;;;;;30.30;19.30;;;;;;;;;;5100823;28;20020;-73
2022/11/18 15:30:26;;;;;;;28.77;19.58;;;;;;;;;;5092609;28;20023;-73
2022/11/18 15:33:11;;;;;;;34.03;20.25;;;;;;;;;;5091970;28;20049;-73
2022/11/18 15:35:57;;;;;;;33.30;20.63;;;;;;;;;;5105004;27;20032;-73
2022/11/18 15:38:43;;;;;;;31.40;20.58;;;;;;;;;;5095429;28;20065;-73
2022/11/18 15:41:29;;;;;;;32.00;19.85;;;;;;;;;;5096447;28;20039;-72
2022/11/18 15:44:14;;;;;;;36.50;20.58;;;;;;;;;;5079473;28;20468;-73
2022/11/18 15:47:00;;;;;;;33.28;20.15;;;;;;;;;;5079072;28;20671;-74
2022/11/18 15:49:46;;;;;;;35.42;21.52;;;;;;;;;;5095055;28;20342;-73
2022/11/18 15:52:31;;;;;;;40.03;21.38;;;;;;;;;;5083168;28;20495;-75
2022/11/18 15:55:17;;;;;;;33.20;22.40;;;;;;;;;;5076840;28;20039;-74
2022/11/18 15:58:02;;;;;;;35.28;20.65;;;;;;;;;;5081026;28;20038;-74
2022/11/18 16:00:48;;;;;;;32.08;19.48;;;;;;;;;;5086348;28;20126;-75
2022/11/18 16:03:34;;;;;;;34.10;20.27;;;;;;;;;;5083514;28;20107;-74
2022/11/18 16:06:20;;;;;;;31.77;19.05;;;;;;;;;;5076971;28;20016;-73
2022/11/18 16:09:05;;;;;;;26.73;17.88;;;;;;;;;;5080377;28;20360;-73
2022/11/18 16:15:42;;;;;;;28.48;18.20;;;;;;;;;;5075687;28;20055;-73
2022/11/18 16:18:01;;;;;;;33.17;19.90;;;;;;;;;;5080652;28;20055;-74
2022/11/18 16:20:47;;;;;;;27.52;18.83;;;;;;;;;;5084616;28;20097;-73
2022/11/18 16:23:33;;;;;;;33.90;20.10;;;;;;;;;;5097327;28;20043;-73
2022/11/18 16:26:19;;;;;;;32.90;20.98;;;;;;;;;;5092486;28;20341;-73
2022/11/18 16:29:06;;;;;;;37.30;21.10;;;;;;;;;;5074708;28;20022;-74
2022/11/18 16:31:53;;;;;;;33.47;21.55;;;;;;;;;;5069279;28;20028;-74
2022/11/18 16:34:38;;;;;;;33.78;20.90;;;;;;;;;;5089116;28;20108;-73
2022/11/18 16:37:24;;;;;;;33.05;22.30;;;;;;;;;;5089993;28;20060;-75
2022/11/18 16:40:09;;;;;;;33.00;21.88;;;;;;;;;;5103571;28;20090;-73
2022/11/18 16:42:55;;;;;;;33.88;21.88;;;;;;;;;;5096989;28;21117;-73
2022/11/18 16:45:48;;;;;;;40.35;21.98;;;;;;;;;;5090214;28;20048;-74